createdAt,value
2017-12-31T00:11:59.237Z,10.20
2017-12-31T00:14:27.642Z,10.20
2017-12-31T00:16:56.048Z,10.20
2017-12-31T00:19:25.561Z,10.00
2017-12-31T00:21:53.937Z,10.10
2017-12-31T00:24:23.992Z,10.10
2017-12-31T00:26:53.116Z,10.00
2017-12-31T00:29:21.483Z,10.00
2017-12-31T00:31:49.832Z,9.90
2017-12-31T00:34:18.981Z,9.80
2017-12-31T00:36:47.380Z,9.70
2017-12-31T00:39:17.292Z,9.60
2017-12-31T00:41:45.651Z,9.60
2017-12-31T00:44:14.034Z,9.60
2017-12-31T00:46:42.427Z,9.40
2017-12-31T00:49:11.569Z,9.40
2017-12-31T00:51:39.959Z,9.30
2017-12-31T00:54:08.376Z,9.20
2017-12-31T00:56:37.548Z,9.40
2017-12-31T00:59:06.767Z,8.90
2017-12-31T01:01:36.010Z,8.90
2017-12-31T01:04:04.373Z,8.80
2017-12-31T01:06:33.495Z,8.90
2017-12-31T01:09:01.871Z,8.90
2017-12-31T01:11:30.231Z,8.90
2017-12-31T01:13:59.800Z,9.00
2017-12-31T01:16:28.167Z,9.00
2017-12-31T01:18:56.547Z,9.00
2017-12-31T01:21:25.002Z,9.10
2017-12-31T01:23:53.387Z,9.20
2017-12-31T01:26:21.768Z,9.20
2017-12-31T01:41:17.111Z,9.70
2017-12-31T01:43:46.244Z,10.00
2017-12-31T01:46:15.775Z,10.30
2017-12-31T01:48:55.352Z,10.30
2017-12-31T01:51:24.515Z,10.60
2017-12-31T01:53:52.875Z,10.60
2017-12-31T01:56:21.260Z,10.70
2017-12-31T01:58:49.618Z,10.90
2017-12-31T02:01:17.978Z,11.10
2017-12-31T02:03:47.127Z,11.10
2017-12-31T02:06:16.627Z,11.20
2017-12-31T02:08:45.004Z,11.20
2017-12-31T02:11:13.385Z,11.20
2017-12-31T02:13:42.934Z,11.20
2017-12-31T02:16:12.433Z,11.10
2017-12-31T02:18:41.572Z,11.20
2017-12-31T02:23:41.746Z,11.20
2017-12-31T02:26:10.114Z,11.20
2017-12-31T02:31:07.867Z,11.10
2017-12-31T02:33:36.288Z,11.30
2017-12-31T02:36:05.282Z,11.20
2017-12-31T02:38:33.652Z,11.20
2017-12-31T02:41:02.052Z,11.30
2017-12-31T02:43:31.181Z,11.40
2017-12-31T02:50:59.459Z,11.50
2017-12-31T02:55:57.200Z,11.60
2017-12-31T02:58:26.717Z,11.70
2017-12-31T03:00:55.127Z,11.60
2017-12-31T03:03:23.510Z,11.60
2017-12-31T03:05:51.868Z,11.60
2017-12-31T03:08:21.007Z,11.60
2017-12-31T03:10:49.364Z,11.60
2017-12-31T03:13:17.799Z,11.60
2017-12-31T03:15:46.171Z,11.70
2017-12-31T03:18:14.536Z,11.70
2017-12-31T03:20:42.907Z,11.70
2017-12-31T03:23:11.271Z,11.70
2017-12-31T03:25:39.653Z,11.60
2017-12-31T03:33:07.543Z,11.70
2017-12-31T03:35:37.003Z,11.70
2017-12-31T03:38:06.511Z,11.70
2017-12-31T03:40:35.032Z,11.70
2017-12-31T03:43:03.395Z,11.70
2017-12-31T03:45:31.751Z,11.80
2017-12-31T03:48:00.906Z,11.80
2017-12-31T03:50:29.272Z,11.80
2017-12-31T03:52:59.473Z,11.80
2017-12-31T03:55:27.975Z,11.80
2017-12-31T03:57:56.404Z,11.80
2017-12-31T04:00:25.530Z,11.80
2017-12-31T04:02:53.895Z,11.80
2017-12-31T04:05:23.040Z,11.80
2017-12-31T04:07:52.539Z,11.80
2017-12-31T04:10:21.292Z,11.80
2017-12-31T04:12:49.652Z,11.80
2017-12-31T04:15:18.603Z,11.80
2017-12-31T04:17:46.967Z,11.80
2017-12-31T04:20:15.348Z,11.70
2017-12-31T04:22:44.618Z,11.70
2017-12-31T04:25:12.974Z,11.70
2017-12-31T04:27:42.119Z,11.60
2017-12-31T04:30:10.480Z,11.60
2017-12-31T04:32:38.870Z,11.40
2017-12-31T04:35:07.233Z,11.50
2017-12-31T04:37:35.598Z,11.50
2017-12-31T04:40:03.979Z,11.50
2017-12-31T04:42:32.340Z,11.50
2017-12-31T04:45:01.496Z,11.40
2017-12-31T04:47:29.881Z,11.40
2017-12-31T04:49:58.260Z,11.40
2017-12-31T04:52:26.630Z,11.40
2017-12-31T04:54:55.006Z,11.50
2017-12-31T04:57:23.394Z,11.50
2017-12-31T04:59:51.802Z,11.60
2017-12-31T05:02:21.320Z,11.60
2017-12-31T05:04:49.692Z,11.60
2017-12-31T05:07:18.823Z,11.60
2017-12-31T05:09:47.199Z,11.60
2017-12-31T05:12:16.113Z,11.60
2017-12-31T05:14:44.487Z,11.60
2017-12-31T05:17:12.855Z,11.60
2017-12-31T05:19:41.224Z,11.60
2017-12-31T05:22:09.596Z,11.70
2017-12-31T05:24:37.957Z,11.60
2017-12-31T05:27:06.414Z,11.70
2017-12-31T05:29:35.552Z,11.70
2017-12-31T05:32:04.027Z,11.70
2017-12-31T05:34:32.391Z,11.60
2017-12-31T05:37:00.756Z,11.60
2017-12-31T05:39:29.911Z,11.70
2017-12-31T05:41:58.287Z,11.70
2017-12-31T05:44:26.675Z,11.70
2017-12-31T05:46:55.689Z,11.70
2017-12-31T05:49:24.837Z,11.70
2017-12-31T05:51:53.215Z,11.70
2017-12-31T05:54:21.581Z,11.70
2017-12-31T05:56:49.958Z,11.70
2017-12-31T05:59:18.422Z,11.70
2017-12-31T06:01:47.543Z,11.80
2017-12-31T06:04:15.924Z,11.80
2017-12-31T06:06:44.293Z,11.80
2017-12-31T06:09:12.700Z,11.80
2017-12-31T06:11:41.083Z,11.80
2017-12-31T06:16:38.840Z,11.70
2017-12-31T06:19:07.206Z,11.70
2017-12-31T06:21:35.582Z,11.70
2017-12-31T06:24:03.968Z,11.70
2017-12-31T06:26:32.333Z,11.80
2017-12-31T06:29:00.737Z,11.80
2017-12-31T06:31:29.104Z,11.80
2017-12-31T06:33:57.479Z,11.80
2017-12-31T06:36:25.864Z,11.90
2017-12-31T06:38:54.237Z,11.80
2017-12-31T06:41:22.617Z,11.70
2017-12-31T06:43:51.087Z,11.80
2017-12-31T06:46:20.585Z,11.80
2017-12-31T06:48:49.074Z,11.80
2017-12-31T06:51:17.430Z,11.80
2017-12-31T06:53:45.823Z,11.80
2017-12-31T06:56:14.176Z,11.80
2017-12-31T06:58:43.308Z,11.70
2017-12-31T07:01:11.688Z,11.70
2017-12-31T07:06:09.467Z,11.80
2017-12-31T07:08:37.856Z,11.80
2017-12-31T07:11:06.229Z,11.70
2017-12-31T07:13:35.735Z,11.60
2017-12-31T07:16:04.167Z,11.60
2017-12-31T07:18:33.315Z,11.60
2017-12-31T07:21:01.684Z,11.60
2017-12-31T07:23:30.056Z,11.60
2017-12-31T07:25:58.436Z,11.60
2017-12-31T07:28:26.807Z,11.60
2017-12-31T07:30:55.824Z,11.60
2017-12-31T07:33:24.422Z,11.70
2017-12-31T07:35:52.803Z,11.70
2017-12-31T07:38:21.187Z,11.70
2017-12-31T07:40:50.317Z,11.80
2017-12-31T07:43:19.828Z,11.60
2017-12-31T07:45:48.978Z,11.80
2017-12-31T07:48:17.352Z,11.80
2017-12-31T07:50:45.760Z,11.80
2017-12-31T07:53:14.897Z,11.80
2017-12-31T07:55:43.276Z,11.80
2017-12-31T07:58:11.637Z,11.80
2017-12-31T08:00:40.018Z,11.80
2017-12-31T08:03:08.411Z,11.80
2017-12-31T08:05:36.804Z,11.90
2017-12-31T08:08:06.012Z,11.90
2017-12-31T08:10:34.374Z,11.90
2017-12-31T08:13:02.732Z,11.90
2017-12-31T08:15:32.130Z,11.90
2017-12-31T08:18:00.507Z,11.80
2017-12-31T08:20:28.890Z,11.90
2017-12-31T08:22:57.256Z,11.80
2017-12-31T08:25:25.611Z,11.90
2017-12-31T08:27:54.762Z,11.70
2017-12-31T08:30:23.130Z,11.70
2017-12-31T08:32:51.397Z,11.70
2017-12-31T08:35:20.901Z,11.70
2017-12-31T08:37:50.093Z,11.70
2017-12-31T08:40:18.475Z,11.80
2017-12-31T08:42:46.840Z,11.80
2017-12-31T08:45:17.711Z,11.80
2017-12-31T08:47:46.416Z,11.80
2017-12-31T08:50:14.800Z,11.80
2017-12-31T08:52:43.180Z,11.80
2017-12-31T08:55:11.545Z,11.80
2017-12-31T08:57:39.933Z,11.80
2017-12-31T09:00:08.357Z,11.80
2017-12-31T09:02:36.870Z,11.80
2017-12-31T09:05:06.752Z,11.80
2017-12-31T09:07:35.135Z,11.80
2017-12-31T09:10:03.523Z,11.80
2017-12-31T09:12:32.010Z,11.80
2017-12-31T09:15:00.400Z,11.80
2017-12-31T09:17:28.763Z,11.80
2017-12-31T09:19:57.123Z,11.90
2017-12-31T09:22:25.505Z,11.90
2017-12-31T09:24:53.876Z,11.90
2017-12-31T09:27:22.252Z,12.00
2017-12-31T09:29:50.629Z,12.00
2017-12-31T09:32:18.992Z,12.00
2017-12-31T09:34:48.148Z,12.10
2017-12-31T09:37:16.572Z,12.10
2017-12-31T09:39:45.697Z,12.20
2017-12-31T09:42:14.075Z,12.20
2017-12-31T09:44:42.441Z,12.10
2017-12-31T09:47:10.856Z,12.20
2017-12-31T09:49:39.220Z,12.30
2017-12-31T09:52:07.689Z,12.30
2017-12-31T09:54:36.080Z,12.30
2017-12-31T09:57:04.444Z,12.30
2017-12-31T09:59:32.867Z,12.30
2017-12-31T10:02:01.245Z,12.30
2017-12-31T10:04:29.614Z,12.40
2017-12-31T10:06:57.998Z,12.40
2017-12-31T10:09:26.368Z,12.40
2017-12-31T10:11:54.920Z,12.40
2017-12-31T10:14:24.425Z,12.50
2017-12-31T10:16:52.783Z,12.50
2017-12-31T10:19:21.179Z,12.40
2017-12-31T10:21:49.561Z,12.40
2017-12-31T10:24:17.959Z,12.40
2017-12-31T10:26:46.328Z,12.40
2017-12-31T10:29:14.706Z,12.40
2017-12-31T10:31:44.132Z,12.40
2017-12-31T10:34:12.499Z,12.30
2017-12-31T10:36:40.917Z,12.40
2017-12-31T10:39:21.000Z,12.40
2017-12-31T10:41:49.423Z,12.40
2017-12-31T10:44:17.937Z,12.50
2017-12-31T10:46:47.084Z,12.50
2017-12-31T10:49:16.224Z,12.60
2017-12-31T10:51:45.372Z,12.60
2017-12-31T10:54:14.887Z,12.70
2017-12-31T10:56:43.273Z,12.70
2017-12-31T10:59:11.655Z,12.80
2017-12-31T11:01:40.026Z,12.80
2017-12-31T11:04:08.399Z,12.70
2017-12-31T11:06:48.094Z,12.70
2017-12-31T11:09:16.568Z,12.70
2017-12-31T11:11:44.975Z,12.80
2017-12-31T11:14:13.342Z,12.90
2017-12-31T11:16:41.709Z,12.90
2017-12-31T11:19:09.907Z,12.90
2017-12-31T11:21:39.097Z,12.80
2017-12-31T11:24:07.474Z,12.80
2017-12-31T11:26:35.874Z,12.90
2017-12-31T11:29:04.237Z,13.00
2017-12-31T11:31:32.620Z,13.10
2017-12-31T11:34:01.005Z,13.20
2017-12-31T11:39:02.939Z,13.20
2017-12-31T11:41:32.100Z,13.30
2017-12-31T11:44:00.506Z,13.30
2017-12-31T11:49:07.479Z,13.20
2017-12-31T11:51:39.711Z,13.10
2017-12-31T11:54:09.932Z,13.10
2017-12-31T11:56:46.618Z,13.00
2017-12-31T11:59:19.088Z,13.00
2017-12-31T12:01:47.494Z,13.00
2017-12-31T12:06:46.103Z,13.00
2017-12-31T12:09:14.471Z,12.90
2017-12-31T12:11:42.839Z,13.00
2017-12-31T12:14:11.217Z,13.00
2017-12-31T12:16:39.593Z,13.00
2017-12-31T12:19:07.961Z,12.90
2017-12-31T12:21:36.341Z,12.90
2017-12-31T12:24:04.715Z,13.00
2017-12-31T12:26:33.099Z,12.90
2017-12-31T12:29:01.476Z,13.00
2017-12-31T12:31:29.856Z,12.90
2017-12-31T12:33:58.248Z,12.90
2017-12-31T12:36:26.428Z,12.90
2017-12-31T12:38:54.811Z,12.90
2017-12-31T12:41:23.171Z,12.90
2017-12-31T12:43:51.540Z,12.90
2017-12-31T12:46:19.912Z,13.00
2017-12-31T12:48:48.280Z,12.90
2017-12-31T12:51:16.657Z,13.00
2017-12-31T12:53:50.460Z,12.90
2017-12-31T12:56:19.024Z,12.90
2017-12-31T12:58:47.392Z,12.90
2017-12-31T13:01:16.556Z,12.90
2017-12-31T13:03:44.997Z,12.90
2017-12-31T13:06:13.364Z,12.90
2017-12-31T13:08:41.763Z,12.90
2017-12-31T13:11:10.125Z,12.90
2017-12-31T13:13:38.494Z,12.90
2017-12-31T13:16:06.880Z,12.90
2017-12-31T13:18:35.265Z,12.90
2017-12-31T13:21:03.652Z,12.90
2017-12-31T13:23:32.016Z,12.90
2017-12-31T13:26:00.400Z,12.90
2017-12-31T13:28:28.783Z,12.90
2017-12-31T13:30:57.144Z,12.90
2017-12-31T13:33:25.536Z,12.80
2017-12-31T13:35:53.897Z,12.90
2017-12-31T13:38:22.264Z,12.80
2017-12-31T13:40:51.783Z,12.90
2017-12-31T13:43:20.241Z,12.90
2017-12-31T13:45:49.415Z,12.90
2017-12-31T13:48:18.025Z,12.90
2017-12-31T13:50:47.154Z,12.90
2017-12-31T13:53:15.532Z,12.90
2017-12-31T13:55:43.898Z,12.90
2017-12-31T13:58:12.294Z,12.90
2017-12-31T14:00:42.165Z,12.90
2017-12-31T14:03:11.347Z,12.90
2017-12-31T14:05:39.774Z,12.90
2017-12-31T14:08:08.289Z,12.90
2017-12-31T14:10:36.668Z,12.90
2017-12-31T14:13:05.041Z,12.90
2017-12-31T14:15:33.430Z,12.90
2017-12-31T14:18:01.805Z,12.90
2017-12-31T14:20:30.179Z,12.90
2017-12-31T14:23:00.068Z,12.80
2017-12-31T14:25:28.474Z,12.80
2017-12-31T14:27:56.864Z,12.80
2017-12-31T14:30:25.298Z,12.80
2017-12-31T14:32:53.964Z,12.80
2017-12-31T14:37:57.914Z,12.80
2017-12-31T14:40:26.702Z,12.70
2017-12-31T14:42:55.069Z,12.80
2017-12-31T14:45:23.460Z,12.80
2017-12-31T14:47:51.529Z,12.80
2017-12-31T14:50:19.890Z,12.80
2017-12-31T14:52:48.267Z,12.80
2017-12-31T14:55:16.636Z,12.90
2017-12-31T14:57:44.816Z,12.90
2017-12-31T15:00:13.204Z,12.90
2017-12-31T15:02:41.572Z,12.90
2017-12-31T15:05:09.964Z,12.90
2017-12-31T15:07:38.329Z,12.90
2017-12-31T15:10:06.684Z,12.90
2017-12-31T15:12:35.492Z,12.90
2017-12-31T15:15:03.980Z,12.90
2017-12-31T15:17:32.412Z,12.90
2017-12-31T15:22:36.330Z,12.90
2017-12-31T15:25:04.724Z,12.80
2017-12-31T15:27:33.853Z,12.90
2017-12-31T15:30:02.225Z,12.90
2017-12-31T15:35:00.767Z,12.90
2017-12-31T15:37:29.160Z,12.90
2017-12-31T15:39:57.580Z,12.80
2017-12-31T15:42:25.968Z,12.70
2017-12-31T15:44:54.343Z,12.70
2017-12-31T15:47:23.269Z,12.70
2017-12-31T15:49:51.655Z,12.70
2017-12-31T15:52:20.040Z,12.70
2017-12-31T15:54:49.178Z,12.70
2017-12-31T15:57:17.551Z,12.70
2017-12-31T15:59:45.924Z,12.70
2017-12-31T16:02:15.053Z,12.70
2017-12-31T16:04:43.548Z,12.70
2017-12-31T16:07:11.919Z,12.70
2017-12-31T16:09:40.280Z,12.70
2017-12-31T16:12:08.650Z,12.80
2017-12-31T16:14:37.020Z,12.70
2017-12-31T16:17:05.415Z,12.70
2017-12-31T16:19:33.853Z,12.70
2017-12-31T16:22:02.225Z,12.70
2017-12-31T16:24:30.612Z,12.70
2017-12-31T16:26:59.744Z,12.70
2017-12-31T16:29:28.120Z,12.70
2017-12-31T16:31:56.499Z,12.70
2017-12-31T16:34:24.717Z,12.70
2017-12-31T16:36:53.126Z,12.70
2017-12-31T16:39:21.661Z,12.80
2017-12-31T16:41:50.083Z,12.80
2017-12-31T16:44:19.212Z,12.80
2017-12-31T16:46:47.581Z,12.80
2017-12-31T16:49:16.068Z,12.70
2017-12-31T16:51:44.477Z,12.60
2017-12-31T16:54:12.866Z,12.60
2017-12-31T16:56:42.073Z,12.60
2017-12-31T16:59:11.222Z,12.60
2017-12-31T17:01:40.547Z,12.60
2017-12-31T17:04:08.917Z,12.50
2017-12-31T17:06:37.298Z,12.50
2017-12-31T17:09:05.143Z,12.50
2017-12-31T17:11:33.527Z,12.40
2017-12-31T17:14:01.904Z,12.30
2017-12-31T17:16:30.276Z,12.30
2017-12-31T17:18:58.724Z,12.20
2017-12-31T17:21:27.230Z,12.30
2017-12-31T17:23:55.588Z,12.20
2017-12-31T17:26:25.615Z,12.20
2017-12-31T17:28:53.978Z,12.20
2017-12-31T17:31:23.136Z,12.10
2017-12-31T17:33:51.516Z,12.00
2017-12-31T17:36:19.888Z,12.00
2017-12-31T17:38:48.260Z,12.00
2017-12-31T17:41:16.515Z,11.90
2017-12-31T17:43:44.904Z,11.90
2017-12-31T17:46:13.285Z,11.80
2017-12-31T17:48:41.646Z,11.80
2017-12-31T17:51:10.025Z,11.80
2017-12-31T17:53:38.397Z,11.80
2017-12-31T17:56:06.792Z,11.70
2017-12-31T17:58:35.154Z,11.60
2017-12-31T18:01:03.520Z,11.60
2017-12-31T18:04:02.275Z,11.40
2017-12-31T18:06:30.746Z,11.40
2017-12-31T18:08:59.128Z,11.30
2017-12-31T18:11:27.504Z,11.30
2017-12-31T18:13:55.888Z,11.30
2017-12-31T18:16:24.529Z,11.40
2017-12-31T18:18:52.893Z,11.50
2017-12-31T18:21:21.391Z,11.50
2017-12-31T18:23:49.754Z,11.50
2017-12-31T18:26:18.181Z,11.50
2017-12-31T18:28:46.545Z,11.50
2017-12-31T18:31:14.916Z,11.50
2017-12-31T18:33:43.297Z,11.50
2017-12-31T18:36:11.671Z,11.50
2017-12-31T18:38:40.050Z,11.50
2017-12-31T18:41:08.417Z,11.50
2017-12-31T18:43:36.781Z,11.50
2017-12-31T18:46:05.168Z,11.50
2017-12-31T18:48:33.523Z,11.60
2017-12-31T18:51:02.492Z,11.60
2017-12-31T18:53:30.862Z,11.60
2017-12-31T18:55:59.228Z,11.60
2017-12-31T18:58:27.645Z,11.60
2017-12-31T19:00:56.776Z,11.60
2017-12-31T19:03:26.067Z,11.60
2017-12-31T19:05:54.438Z,11.70
2017-12-31T19:08:22.861Z,11.70
2017-12-31T19:10:51.232Z,11.70
2017-12-31T19:13:20.359Z,11.70
2017-12-31T19:15:49.572Z,11.70
2017-12-31T19:18:18.702Z,11.70
2017-12-31T19:20:47.093Z,11.60
2017-12-31T19:23:15.480Z,11.70
2017-12-31T19:25:43.859Z,11.70
2017-12-31T19:28:12.239Z,11.60
2017-12-31T19:30:40.600Z,11.50
2017-12-31T19:33:09.018Z,11.40
2017-12-31T19:35:38.190Z,11.30
2017-12-31T19:38:06.557Z,11.30
2017-12-31T19:43:18.914Z,11.00
2017-12-31T19:45:47.334Z,11.00
2017-12-31T19:48:15.699Z,10.90
2017-12-31T19:50:44.106Z,10.80
2017-12-31T19:53:12.485Z,10.80
2017-12-31T19:55:40.855Z,10.70
2017-12-31T19:58:10.425Z,10.60
2017-12-31T20:00:39.570Z,10.40
2017-12-31T20:03:07.968Z,10.40
2017-12-31T20:05:37.497Z,10.20
2017-12-31T20:08:06.658Z,10.00
2017-12-31T20:10:35.069Z,10.00
2017-12-31T20:13:04.576Z,9.70
2017-12-31T20:15:33.712Z,9.70
2017-12-31T20:18:01.909Z,9.70
2017-12-31T20:20:30.307Z,9.60
2017-12-31T20:22:58.704Z,9.50
2017-12-31T20:25:27.843Z,9.30
2017-12-31T20:27:56.204Z,9.30
2017-12-31T20:30:24.604Z,9.30
2017-12-31T20:32:53.790Z,9.30
2017-12-31T20:35:22.292Z,9.20
2017-12-31T20:37:50.726Z,9.20
2017-12-31T20:40:19.876Z,9.10
2017-12-31T20:42:48.259Z,9.10
2017-12-31T20:45:16.625Z,9.10
2017-12-31T20:47:45.006Z,9.10
2017-12-31T20:50:13.411Z,9.10
2017-12-31T20:52:42.601Z,9.00
2017-12-31T20:55:10.972Z,9.00
2017-12-31T20:57:39.400Z,8.90
2017-12-31T21:00:07.516Z,8.90
2017-12-31T21:02:37.259Z,9.00
2017-12-31T21:05:06.421Z,9.00
2017-12-31T21:07:36.363Z,8.90
2017-12-31T21:10:04.402Z,8.90
2017-12-31T21:12:32.798Z,8.90
2017-12-31T21:15:01.174Z,9.00
2017-12-31T21:17:29.553Z,9.00
2017-12-31T21:19:57.935Z,9.00
2017-12-31T21:22:26.333Z,9.00
2017-12-31T21:24:55.468Z,9.00
2017-12-31T21:27:23.641Z,8.90
2017-12-31T21:29:52.056Z,9.00
2017-12-31T21:32:20.423Z,9.00
2017-12-31T21:34:48.836Z,9.00
2017-12-31T21:37:17.976Z,9.00
2017-12-31T21:39:46.345Z,9.00
2017-12-31T21:42:14.780Z,9.00
2017-12-31T21:44:43.936Z,9.10
2017-12-31T21:47:12.331Z,9.00
2017-12-31T21:49:40.710Z,9.00
2017-12-31T21:52:10.259Z,9.00
2017-12-31T21:54:39.480Z,9.00
2017-12-31T21:57:08.036Z,9.00
2017-12-31T21:59:37.195Z,9.00
2017-12-31T22:02:05.585Z,9.00
2017-12-31T22:04:35.462Z,9.10
2017-12-31T22:07:03.883Z,9.10
2017-12-31T22:09:32.252Z,9.00
2017-12-31T22:12:00.628Z,9.10
2017-12-31T22:14:29.008Z,9.10
2017-12-31T22:16:58.132Z,9.00
2017-12-31T22:19:27.301Z,9.10
2017-12-31T22:21:55.686Z,9.10
2017-12-31T22:24:25.555Z,9.20
2017-12-31T22:26:53.967Z,9.20
2017-12-31T22:29:23.847Z,9.20
2017-12-31T22:31:52.247Z,9.20
2017-12-31T22:34:20.609Z,9.30
2017-12-31T22:36:48.970Z,9.20
2017-12-31T22:39:17.388Z,9.30
2017-12-31T22:41:45.759Z,9.20
2017-12-31T22:44:14.150Z,9.30
2017-12-31T22:46:42.328Z,9.20
2017-12-31T22:49:10.902Z,9.20
2017-12-31T22:51:39.304Z,9.20
2017-12-31T22:54:08.335Z,9.20
2017-12-31T22:56:36.727Z,9.20
2017-12-31T22:59:05.115Z,9.10
2017-12-31T23:01:33.484Z,9.10
2017-12-31T23:04:01.880Z,9.00
2017-12-31T23:06:31.322Z,7.30
2017-12-31T23:09:00.497Z,5.70
2017-12-31T23:11:29.640Z,5.20
2017-12-31T23:38:54.192Z,5.40
2017-12-31T23:41:23.693Z,5.50
2017-12-31T23:43:52.144Z,5.50
2017-12-31T23:48:49.905Z,5.50
2017-12-31T23:51:18.274Z,5.70
2017-12-31T23:53:46.665Z,5.70
2017-12-31T23:56:15.092Z,5.80
2017-12-31T23:58:43.461Z,5.90
